Time;durP1;ratioP1;P1;durP2;ratioP2;P2;SDS_P1;SDS_P2;PMS_P1;PMS_P2;Temp;Humidity;BMP_temperature;BMP_pressure;BME280_temperature;BME280_humidity;BME280_pressure;Samples;Min_cycle;Max_cycle;Signal;HPM_P1;HPM_P2
2022/02/18 00:02:07;;;;;;;17.03;4.30;;;10.70;99.90;;;;;;5114205;28;20229;-58
2022/02/18 00:04:33;;;;;;;15.53;3.63;;;10.60;99.90;;;;;;5113525;28;20200;-57
2022/02/18 00:07:00;;;;;;;14.87;3.70;;;10.60;99.90;;;;;;5113870;28;20207;-58
2022/02/18 00:09:27;;;;;;;16.83;4.47;;;10.50;99.90;;;;;;5113778;28;20284;-58
2022/02/18 00:11:54;;;;;;;15.87;4.27;;;10.50;99.90;;;;;;5114055;28;20203;-58
2022/02/18 00:14:21;;;;;;;23.20;4.30;;;10.40;99.90;;;;;;5113917;28;20214;-58
2022/02/18 00:16:49;;;;;;;23.63;4.70;;;10.30;99.90;;;;;;5113851;28;20203;-58
2022/02/18 00:19:15;;;;;;;19.73;4.20;;;10.20;99.90;;;;;;5113439;28;20220;-58
2022/02/18 00:21:42;;;;;;;19.27;4.40;;;10.10;99.90;;;;;;5113884;28;20203;-58
2022/02/18 00:24:09;;;;;;;17.20;4.00;;;10.00;99.90;;;;;;5113867;28;20264;-58
2022/02/18 00:26:35;;;;;;;21.23;4.33;;;9.90;99.90;;;;;;5113670;28;20200;-58
2022/02/18 00:29:02;;;;;;;19.07;3.77;;;9.90;99.90;;;;;;5113657;28;20235;-58
2022/02/18 00:31:29;;;;;;;20.60;6.67;;;9.80;99.90;;;;;;5113367;28;20248;-58
2022/02/18 00:33:57;;;;;;;19.20;4.50;;;9.60;99.90;;;;;;5113649;28;20256;-58
2022/02/18 00:36:23;;;;;;;15.80;3.73;;;9.60;99.90;;;;;;5113565;28;20269;-58
2022/02/18 00:38:50;;;;;;;19.20;4.20;;;9.60;99.90;;;;;;5113354;28;20710;-57
2022/02/18 00:41:17;;;;;;;20.17;4.13;;;9.50;99.90;;;;;;5113480;28;20219;-58
2022/02/18 00:43:44;;;;;;;19.87;4.37;;;9.50;99.90;;;;;;5113414;28;20207;-58
2022/02/18 00:46:10;;;;;;;20.50;4.77;;;9.60;99.90;;;;;;5113143;28;20210;-58
2022/02/18 00:48:37;;;;;;;13.33;3.90;;;9.60;99.90;;;;;;5113557;28;20230;-58
2022/02/18 00:51:06;;;;;;;16.43;4.20;;;9.70;99.90;;;;;;5113183;28;20204;-58
2022/02/18 00:53:32;;;;;;;17.23;4.20;;;9.70;99.90;;;;;;5113533;28;20291;-59
2022/02/18 00:55:59;;;;;;;13.10;3.97;;;9.80;99.90;;;;;;5113220;28;20227;-57
2022/02/18 00:58:26;;;;;;;17.50;4.03;;;9.90;99.90;;;;;;5113087;28;20285;-58
2022/02/18 01:00:52;;;;;;;17.03;3.87;;;10.00;99.90;;;;;;5112798;28;20219;-59
2022/02/18 01:03:19;;;;;;;17.23;4.03;;;10.10;99.90;;;;;;5113239;28;20207;-58
2022/02/18 01:05:47;;;;;;;16.00;3.77;;;10.10;99.90;;;;;;5113123;28;20246;-58
2022/02/18 01:08:15;;;;;;;20.50;4.63;;;10.30;99.90;;;;;;5112792;28;20606;-58
2022/02/18 01:10:42;;;;;;;16.37;4.27;;;10.40;99.90;;;;;;5112835;28;20207;-59
2022/02/18 01:13:08;;;;;;;16.77;4.33;;;10.40;99.90;;;;;;5112858;28;20629;-58
2022/02/18 01:15:35;;;;;;;18.77;3.83;;;10.50;99.90;;;;;;5113010;28;20231;-58
2022/02/18 01:18:02;;;;;;;17.47;3.90;;;10.60;99.90;;;;;;5112796;28;20613;-58
2022/02/18 01:20:29;;;;;;;18.47;3.97;;;10.60;99.90;;;;;;5112741;28;20203;-58
2022/02/18 01:22:55;;;;;;;17.37;4.03;;;10.70;99.90;;;;;;5112705;28;20713;-58
2022/02/18 01:25:23;;;;;;;17.83;4.63;;;10.80;99.90;;;;;;5112689;28;20667;-58
2022/02/18 01:27:55;;;;;;;18.73;4.77;;;10.80;99.90;;;;;;5112336;28;20199;-58
2022/02/18 01:30:23;;;;;;;14.37;4.10;;;10.90;99.90;;;;;;5112564;28;20204;-58
2022/02/18 01:32:49;;;;;;;17.07;4.10;;;11.00;99.90;;;;;;5112551;28;20735;-58
2022/02/18 01:35:17;;;;;;;18.30;4.30;;;11.00;99.90;;;;;;5112556;28;20231;-59
2022/02/18 01:37:44;;;;;;;15.57;4.17;;;11.10;99.90;;;;;;5112604;28;20579;-58
2022/02/18 01:40:14;;;;;;;10.87;3.60;;;11.10;99.90;;;;;;5112144;28;20230;-59
2022/02/18 01:42:42;;;;;;;15.10;4.43;;;11.10;99.90;;;;;;5112727;28;20231;-58
2022/02/18 01:45:10;;;;;;;12.80;3.57;;;11.10;99.90;;;;;;5112590;28;20256;-59
2022/02/18 01:47:37;;;;;;;14.50;3.63;;;11.10;99.90;;;;;;5112537;28;20208;-59
2022/02/18 01:50:06;;;;;;;16.53;3.97;;;11.10;99.90;;;;;;5112024;28;20634;-59
2022/02/18 01:52:34;;;;;;;13.97;3.53;;;11.10;99.90;;;;;;5112342;28;20671;-59
2022/02/18 01:55:07;;;;;;;14.07;3.50;;;11.00;99.90;;;;;;5112184;28;20297;-59
2022/02/18 01:57:34;;;;;;;13.93;4.07;;;11.10;99.90;;;;;;5112691;28;20207;-59
2022/02/18 02:00:02;;;;;;;17.60;4.23;;;11.20;99.90;;;;;;5111995;28;20714;-59
2022/02/18 02:02:28;;;;;;;21.37;3.93;;;11.20;99.90;;;;;;5112304;28;20249;-59
2022/02/18 02:04:55;;;;;;;19.17;4.53;;;11.20;99.90;;;;;;5112239;28;20248;-59
2022/02/18 02:07:22;;;;;;;12.27;3.80;;;11.20;99.90;;;;;;5112119;28;20608;-59
2022/02/18 02:09:48;;;;;;;14.47;3.83;;;11.20;99.90;;;;;;5112193;28;20232;-59
2022/02/18 02:12:15;;;;;;;21.73;7.60;;;11.30;99.90;;;;;;5112253;28;20204;-57
2022/02/18 02:14:42;;;;;;;18.10;4.40;;;11.30;99.90;;;;;;5112091;28;20585;-60
2022/02/18 02:17:10;;;;;;;12.30;3.33;;;11.30;99.90;;;;;;5112044;28;20204;-57
2022/02/18 02:19:37;;;;;;;13.80;3.80;;;11.30;99.90;;;;;;5111821;28;20223;-58
2022/02/18 02:22:04;;;;;;;17.20;4.10;;;11.20;99.90;;;;;;5111946;28;20227;-58
2022/02/18 02:24:32;;;;;;;11.43;3.90;;;11.20;99.90;;;;;;5112314;28;20203;-57
2022/02/18 02:26:59;;;;;;;15.33;3.10;;;11.20;99.90;;;;;;5112263;28;20204;-58
2022/02/18 02:29:26;;;;;;;13.30;3.33;;;11.20;99.90;;;;;;5114796;28;20231;-58
2022/02/18 02:31:53;;;;;;;13.73;4.17;;;11.10;99.90;;;;;;5115960;28;20219;-58
2022/02/18 02:34:19;;;;;;;16.30;4.10;;;11.20;99.90;;;;;;5115910;28;20200;-58
2022/02/18 02:36:46;;;;;;;13.00;3.53;;;11.10;99.90;;;;;;5115622;28;20308;-58
2022/02/18 02:39:13;;;;;;;20.33;4.00;;;11.10;99.90;;;;;;5115675;28;20722;-58
2022/02/18 02:41:41;;;;;;;13.23;3.37;;;11.00;99.90;;;;;;5115663;28;20207;-58
2022/02/18 02:44:08;;;;;;;17.10;3.27;;;10.80;99.90;;;;;;5115639;28;20211;-58
2022/02/18 02:46:36;;;;;;;13.33;3.80;;;10.70;99.90;;;;;;5115676;28;20203;-58
2022/02/18 02:49:03;;;;;;;14.80;3.70;;;10.60;99.90;;;;;;5115445;28;20310;-58
2022/02/18 02:51:29;;;;;;;19.43;4.10;;;10.50;99.90;;;;;;5115542;28;20269;-58
2022/02/18 02:53:56;;;;;;;14.23;3.90;;;10.40;99.90;;;;;;5115452;28;20707;-58
2022/02/18 02:56:23;;;;;;;11.57;3.23;;;10.40;99.90;;;;;;5115504;28;20255;-58
2022/02/18 02:58:51;;;;;;;16.57;4.00;;;10.40;99.90;;;;;;5115505;28;20231;-58
2022/02/18 03:01:18;;;;;;;17.67;3.47;;;10.50;99.90;;;;;;5115130;28;20253;-58
2022/02/18 03:03:44;;;;;;;12.73;3.30;;;10.60;99.90;;;;;;5115321;28;20199;-58
2022/02/18 03:06:11;;;;;;;13.03;3.87;;;10.60;99.90;;;;;;5115187;28;20690;-58
2022/02/18 03:08:38;;;;;;;12.10;3.37;;;10.70;99.90;;;;;;5115659;28;20231;-58
2022/02/18 03:11:17;;;;;;;13.73;3.60;;;10.70;99.90;;;;;;5114926;28;20686;-59
2022/02/18 03:13:45;;;;;;;17.90;4.20;;;10.70;99.90;;;;;;5115267;28;20207;-58
2022/02/18 03:16:13;;;;;;;11.90;3.50;;;10.70;99.90;;;;;;5114936;28;20223;-58
2022/02/18 03:18:40;;;;;;;16.23;4.53;;;10.60;99.90;;;;;;5115264;28;20277;-58
2022/02/18 03:21:07;;;;;;;19.10;3.57;;;10.50;99.90;;;;;;5114939;28;20256;-58
2022/02/18 03:23:34;;;;;;;17.10;3.73;;;10.40;99.90;;;;;;5114990;27;20687;-58
2022/02/18 03:26:00;;;;;;;10.83;3.57;;;10.30;99.90;;;;;;5114892;28;20203;-57
2022/02/18 03:28:27;;;;;;;13.07;3.87;;;10.20;99.90;;;;;;5114798;28;20223;-58
2022/02/18 03:30:54;;;;;;;17.57;4.17;;;10.10;99.90;;;;;;5114639;28;20214;-58
2022/02/18 03:33:22;;;;;;;16.53;4.40;;;9.90;99.90;;;;;;5115207;28;20207;-58
2022/02/18 03:35:49;;;;;;;17.53;3.73;;;9.80;99.90;;;;;;5114637;28;20695;-58
2022/02/18 03:38:16;;;;;;;19.00;4.67;;;9.80;99.90;;;;;;5114807;28;20227;-58
2022/02/18 03:40:42;;;;;;;17.27;4.70;;;9.60;99.90;;;;;;5113500;28;20199;-58
2022/02/18 03:43:09;;;;;;;15.83;4.00;;;9.60;99.90;;;;;;5114501;28;20552;-58
2022/02/18 03:45:36;;;;;;;13.70;3.80;;;9.60;99.90;;;;;;5114363;28;20199;-58
2022/02/18 03:48:03;;;;;;;18.70;3.70;;;9.50;99.90;;;;;;5114699;28;20253;-58
2022/02/18 03:50:31;;;;;;;15.97;3.93;;;9.40;99.90;;;;;;5114224;28;20675;-59
2022/02/18 03:52:58;;;;;;;15.90;3.73;;;9.30;99.90;;;;;;5114519;28;20208;-58
2022/02/18 03:55:26;;;;;;;15.77;3.50;;;9.30;99.90;;;;;;5114274;28;20207;-58
2022/02/18 03:57:52;;;;;;;15.83;4.00;;;9.20;99.90;;;;;;5114193;28;20207;-58
2022/02/18 04:00:19;;;;;;;11.07;3.17;;;9.10;99.90;;;;;;5114369;28;20211;-58
2022/02/18 04:02:46;;;;;;;12.40;3.30;;;9.00;99.90;;;;;;5114290;28;20264;-58
2022/02/18 04:05:13;;;;;;;14.63;3.13;;;8.90;99.90;;;;;;5114290;28;20211;-58
2022/02/18 04:07:41;;;;;;;10.80;3.20;;;9.00;99.90;;;;;;5114065;28;20210;-58
2022/02/18 04:10:08;;;;;;;15.53;3.47;;;8.90;99.90;;;;;;5113652;28;20367;-58
2022/02/18 04:12:35;;;;;;;11.90;3.07;;;8.90;99.90;;;;;;5114029;28;20620;-58
2022/02/18 04:15:02;;;;;;;11.30;3.27;;;9.00;99.90;;;;;;5114012;28;20211;-58
2022/02/18 04:17:29;;;;;;;13.20;3.23;;;8.90;99.90;;;;;;5113977;28;20639;-58
2022/02/18 04:19:56;;;;;;;14.80;3.60;;;8.90;99.90;;;;;;5113664;28;20223;-58
2022/02/18 04:22:22;;;;;;;15.57;3.93;;;8.90;99.90;;;;;;5113706;28;20603;-58
2022/02/18 04:24:50;;;;;;;14.93;3.50;;;9.00;99.90;;;;;;5113786;28;20200;-58
2022/02/18 04:27:17;;;;;;;14.00;3.13;;;9.10;99.90;;;;;;5113596;28;20689;-59
2022/02/18 04:29:45;;;;;;;12.13;2.90;;;9.10;99.90;;;;;;5113447;28;20239;-58
2022/02/18 04:32:12;;;;;;;14.00;3.00;;;9.10;99.90;;;;;;5113565;28;20204;-59
2022/02/18 04:34:39;;;;;;;15.40;3.43;;;9.10;99.90;;;;;;5113749;28;20207;-58
2022/02/18 04:37:05;;;;;;;18.40;3.53;;;9.10;99.90;;;;;;5113526;28;20220;-58
2022/02/18 04:39:32;;;;;;;11.57;2.97;;;9.10;99.90;;;;;;5113280;28;20292;-58
2022/02/18 04:42:00;;;;;;;11.57;2.83;;;9.20;99.90;;;;;;5113368;28;20320;-58
2022/02/18 04:44:27;;;;;;;11.83;2.93;;;9.20;99.90;;;;;;5113400;28;20606;-59
2022/02/18 04:46:53;;;;;;;11.37;3.10;;;9.40;99.90;;;;;;5113331;28;20200;-58
2022/02/18 04:49:20;;;;;;;11.43;3.00;;;9.40;99.90;;;;;;5113186;28;20776;-58
2022/02/18 04:51:49;;;;;;;11.50;3.10;;;9.50;99.90;;;;;;5112735;28;20207;-57
2022/02/18 04:54:16;;;;;;;11.13;3.10;;;9.50;99.90;;;;;;5113419;28;20209;-57
2022/02/18 04:56:43;;;;;;;14.57;4.03;;;9.70;99.90;;;;;;5113370;28;20219;-57
2022/02/18 04:59:12;;;;;;;12.97;3.20;;;9.80;99.90;;;;;;5113235;28;20318;-58
2022/02/18 05:01:39;;;;;;;12.53;3.10;;;9.90;99.90;;;;;;5112903;28;20206;-58
2022/02/18 05:04:06;;;;;;;13.30;3.10;;;10.00;99.90;;;;;;5113027;28;20200;-59
2022/02/18 05:06:33;;;;;;;8.87;2.80;;;10.00;99.90;;;;;;5112898;28;20199;-57
2022/02/18 05:09:00;;;;;;;15.53;3.97;;;10.10;99.90;;;;;;5113010;28;20231;-60
2022/02/18 05:11:26;;;;;;;12.27;3.80;;;10.20;99.90;;;;;;5112941;28;20219;-58
2022/02/18 05:13:53;;;;;;;12.23;3.20;;;10.20;99.90;;;;;;5112981;28;20199;-57
2022/02/18 05:16:21;;;;;;;10.80;2.60;;;10.30;99.90;;;;;;5112659;28;20706;-58
2022/02/18 05:18:48;;;;;;;12.43;3.10;;;10.30;99.90;;;;;;5112866;28;20226;-58
2022/02/18 05:21:17;;;;;;;8.90;3.10;;;10.40;99.90;;;;;;5112408;28;20322;-58
2022/02/18 05:23:44;;;;;;;12.03;3.40;;;10.40;99.90;;;;;;5112815;28;20199;-57
2022/02/18 05:26:11;;;;;;;12.67;3.27;;;10.40;99.90;;;;;;5112691;28;20332;-58
2022/02/18 05:28:38;;;;;;;13.93;2.80;;;10.50;99.90;;;;;;5112567;28;20648;-57
2022/02/18 05:31:05;;;;;;;14.13;3.17;;;10.50;99.90;;;;;;5112260;28;20235;-58
2022/02/18 05:33:33;;;;;;;13.27;2.90;;;10.60;99.90;;;;;;5112398;28;20207;-57
2022/02/18 05:36:00;;;;;;;13.17;3.27;;;10.60;99.90;;;;;;5112580;28;20579;-57
2022/02/18 05:38:28;;;;;;;12.80;4.13;;;10.80;99.90;;;;;;5112531;28;20604;-58
2022/02/18 05:40:55;;;;;;;13.50;3.27;;;10.90;99.90;;;;;;5112382;28;20671;-59
2022/02/18 05:43:22;;;;;;;14.53;3.43;;;10.90;99.90;;;;;;5112738;28;20239;-58
2022/02/18 05:45:49;;;;;;;10.30;2.97;;;11.00;99.90;;;;;;5112336;28;20232;-58
2022/02/18 05:48:15;;;;;;;12.97;3.10;;;11.00;99.90;;;;;;5112269;28;20707;-58
2022/02/18 05:50:43;;;;;;;10.73;3.13;;;11.00;99.90;;;;;;5112374;28;20203;-57
2022/02/18 05:53:10;;;;;;;13.60;3.40;;;11.10;99.90;;;;;;5112427;28;20212;-58
2022/02/18 05:55:37;;;;;;;12.93;3.73;;;11.10;99.90;;;;;;5112488;28;20211;-58
2022/02/18 05:58:03;;;;;;;11.93;3.30;;;11.10;99.90;;;;;;5112131;28;20224;-58
2022/02/18 06:00:30;;;;;;;11.93;4.07;;;11.10;99.90;;;;;;5112000;28;20690;-57
2022/02/18 06:02:57;;;;;;;14.90;3.80;;;11.10;99.90;;;;;;5112322;28;20222;-60
2022/02/18 06:05:23;;;;;;;16.20;4.17;;;11.20;99.90;;;;;;5116588;28;20211;-57
2022/02/18 06:07:51;;;;;;;13.57;3.20;;;11.20;99.90;;;;;;5116516;28;20425;-57
2022/02/18 06:10:18;;;;;;;14.37;3.43;;;11.30;99.90;;;;;;5116114;28;20677;-59
2022/02/18 06:12:45;;;;;;;12.10;3.57;;;11.40;99.90;;;;;;5116172;28;20265;-56
2022/02/18 06:15:12;;;;;;;14.27;3.13;;;11.40;99.90;;;;;;5116285;28;20203;-58
2022/02/18 06:17:39;;;;;;;17.47;3.53;;;11.50;99.90;;;;;;5116353;28;20234;-58
2022/02/18 06:20:07;;;;;;;17.10;4.23;;;11.50;99.90;;;;;;5115995;28;20227;-58
2022/02/18 06:22:35;;;;;;;16.53;5.63;;;11.50;99.90;;;;;;5116170;28;20260;-58
2022/02/18 06:25:04;;;;;;;13.90;3.30;;;11.50;99.90;;;;;;5116255;28;20204;-58
2022/02/18 06:27:30;;;;;;;12.03;3.50;;;11.60;99.90;;;;;;5116020;28;20206;-58
2022/02/18 06:29:57;;;;;;;11.77;3.07;;;11.70;99.90;;;;;;5115581;28;20649;-58
2022/02/18 06:32:24;;;;;;;11.30;3.37;;;11.70;99.90;;;;;;5116137;28;20215;-59
2022/02/18 06:34:52;;;;;;;16.23;4.60;;;11.80;99.90;;;;;;5115868;28;20686;-58
2022/02/18 06:37:19;;;;;;;7.77;2.93;;;11.80;99.90;;;;;;5115775;28;20793;-58
2022/02/18 06:39:46;;;;;;;14.57;3.73;;;11.80;99.90;;;;;;5115915;28;20629;-58
2022/02/18 06:42:14;;;;;;;10.57;3.03;;;11.90;99.90;;;;;;5115537;28;20208;-58
2022/02/18 06:44:40;;;;;;;13.10;3.40;;;11.90;99.90;;;;;;5115588;28;20241;-58
2022/02/18 06:47:07;;;;;;;14.83;3.70;;;11.90;99.90;;;;;;5115916;28;20284;-58
2022/02/18 06:49:34;;;;;;;13.37;3.30;;;12.00;99.90;;;;;;5115893;28;20224;-58
2022/02/18 06:52:01;;;;;;;13.63;3.43;;;12.00;99.90;;;;;;5115773;28;20208;-58
2022/02/18 06:54:28;;;;;;;14.87;3.70;;;12.10;99.90;;;;;;5116224;28;20235;-58
2022/02/18 06:56:57;;;;;;;11.47;3.30;;;12.10;99.90;;;;;;5114924;28;20223;-58
2022/02/18 06:59:25;;;;;;;14.40;3.77;;;12.10;99.90;;;;;;5115546;28;20228;-57
2022/02/18 07:01:54;;;;;;;12.53;3.10;;;12.20;99.90;;;;;;5115174;28;20203;-58
2022/02/18 07:04:21;;;;;;;13.97;3.33;;;12.30;99.90;;;;;;5115210;28;20208;-59
2022/02/18 07:06:47;;;;;;;10.47;3.10;;;12.30;99.90;;;;;;5115127;28;20199;-59
2022/02/18 07:09:15;;;;;;;12.10;3.03;;;12.40;99.90;;;;;;5114814;28;20235;-58
2022/02/18 07:11:42;;;;;;;13.77;3.17;;;12.50;99.90;;;;;;5114843;28;20215;-58
2022/02/18 07:14:10;;;;;;;12.83;3.23;;;12.50;99.90;;;;;;5115244;28;20207;-59
2022/02/18 07:16:41;;;;;;;9.93;3.00;;;12.50;99.90;;;;;;5115359;28;20290;-58
2022/02/18 07:19:08;;;;;;;17.93;5.47;;;12.60;99.90;;;;;;5114809;28;20318;-58
2022/02/18 07:21:35;;;;;;;16.17;5.40;;;12.70;99.90;;;;;;5114820;27;20644;-57
2022/02/18 07:24:02;;;;;;;11.97;3.97;;;12.80;99.90;;;;;;5114785;28;20204;-58
2022/02/18 07:26:28;;;;;;;15.57;5.40;;;12.80;99.90;;;;;;5114983;28;20204;-58
2022/02/18 07:28:55;;;;;;;15.50;5.27;;;12.80;99.90;;;;;;5114925;28;20227;-58
2022/02/18 07:31:22;;;;;;;15.80;3.60;;;12.90;99.90;;;;;;5114583;28;20203;-58
2022/02/18 07:33:50;;;;;;;13.57;3.73;;;12.90;99.90;;;;;;5114816;28;20585;-57
2022/02/18 07:36:17;;;;;;;15.27;3.83;;;13.00;99.90;;;;;;5114365;28;20215;-57
2022/02/18 07:38:43;;;;;;;11.63;3.20;;;13.00;99.90;;;;;;5113982;28;20228;-57
2022/02/18 07:41:10;;;;;;;14.43;3.67;;;13.10;99.90;;;;;;5114198;28;20558;-59
2022/02/18 07:43:37;;;;;;;10.63;2.73;;;13.10;99.90;;;;;;5114193;28;20619;-58
2022/02/18 07:46:03;;;;;;;19.80;3.77;;;13.10;99.90;;;;;;5114521;28;20211;-57
2022/02/18 07:48:30;;;;;;;14.23;3.03;;;13.20;99.90;;;;;;5114232;28;20227;-57
2022/02/18 07:50:59;;;;;;;12.77;3.30;;;13.30;99.90;;;;;;5114063;28;20207;-57
2022/02/18 07:53:26;;;;;;;11.57;3.33;;;13.30;99.90;;;;;;5114328;28;20538;-57
2022/02/18 07:55:53;;;;;;;12.33;2.80;;;13.30;99.90;;;;;;5114085;28;20663;-57
2022/02/18 07:58:20;;;;;;;10.37;3.23;;;13.40;99.90;;;;;;5114135;28;20231;-58
2022/02/18 08:00:47;;;;;;;8.63;2.50;;;13.40;99.90;;;;;;5114048;28;20242;-58
2022/02/18 08:03:13;;;;;;;10.60;3.13;;;13.30;99.90;;;;;;5114156;28;20207;-58
2022/02/18 08:05:40;;;;;;;9.60;2.63;;;13.40;99.90;;;;;;5113887;28;20204;-58
2022/02/18 08:08:08;;;;;;;8.33;2.60;;;13.30;99.90;;;;;;5113886;28;20203;-58
2022/02/18 08:10:35;;;;;;;10.53;2.67;;;13.20;99.90;;;;;;5113556;28;20245;-58
2022/02/18 08:13:02;;;;;;;9.20;2.67;;;13.30;99.90;;;;;;5113644;28;20585;-57
2022/02/18 08:15:29;;;;;;;8.63;2.43;;;13.40;99.90;;;;;;5113748;28;20225;-58
2022/02/18 08:17:56;;;;;;;9.70;2.53;;;13.50;99.90;;;;;;5113676;28;20272;-57
2022/02/18 08:20:23;;;;;;;13.03;3.13;;;13.40;99.90;;;;;;5113456;28;20238;-57
2022/02/18 08:22:50;;;;;;;7.43;2.50;;;13.60;99.90;;;;;;5113858;28;20226;-59
2022/02/18 08:25:18;;;;;;;6.57;2.10;;;13.90;99.90;;;;;;5113735;28;20211;-58
2022/02/18 08:27:45;;;;;;;6.70;2.17;;;14.10;99.90;;;;;;5113064;28;20200;-57
2022/02/18 08:30:13;;;;;;;7.73;2.30;;;14.40;99.90;;;;;;5113206;28;20269;-57
2022/02/18 08:32:39;;;;;;;7.10;2.00;;;14.50;99.90;;;;;;5113304;27;20287;-58
2022/02/18 08:35:07;;;;;;;7.23;2.20;;;14.50;99.90;;;;;;5113543;28;20576;-57
2022/02/18 08:37:34;;;;;;;6.23;1.90;;;14.50;99.90;;;;;;5113492;28;20272;-57
2022/02/18 08:40:01;;;;;;;8.03;2.27;;;14.60;99.90;;;;;;5113405;28;20288;-56
2022/02/18 08:42:29;;;;;;;6.23;2.20;;;14.60;99.90;;;;;;5113505;28;20211;-59
2022/02/18 08:44:55;;;;;;;9.83;2.20;;;14.60;99.90;;;;;;5113599;28;20210;-56
2022/02/18 08:47:22;;;;;;;9.17;2.30;;;14.70;99.90;;;;;;5113203;28;20200;-57
2022/02/18 08:49:49;;;;;;;7.50;2.40;;;14.70;99.90;;;;;;5113365;28;20280;-57
2022/02/18 08:52:16;;;;;;;8.00;1.80;;;14.60;99.90;;;;;;5112779;28;20608;-57
2022/02/18 08:54:42;;;;;;;8.97;2.17;;;14.50;99.90;;;;;;5113510;28;20199;-56
2022/02/18 08:57:10;;;;;;;6.10;2.03;;;14.70;99.90;;;;;;5113035;28;20693;-57
2022/02/18 08:59:40;;;;;;;6.37;2.17;;;14.70;99.90;;;;;;5113077;28;20280;-57
2022/02/18 09:02:08;;;;;;;6.27;2.20;;;14.80;99.90;;;;;;5112659;28;20752;-57
2022/02/18 09:04:35;;;;;;;9.77;2.23;;;15.00;99.90;;;;;;5113081;28;20575;-56
2022/02/18 09:07:02;;;;;;;5.80;1.90;;;15.10;99.90;;;;;;5112912;28;20204;-58
2022/02/18 09:09:29;;;;;;;6.03;1.93;;;15.40;99.90;;;;;;5113197;28;20246;-57
2022/02/18 09:11:56;;;;;;;7.93;2.17;;;15.80;99.90;;;;;;5112637;28;20233;-57
2022/02/18 09:14:22;;;;;;;7.23;1.97;;;16.00;99.90;;;;;;5112727;28;20555;-57
2022/02/18 09:16:52;;;;;;;6.50;1.90;;;16.10;99.90;;;;;;5112740;28;20207;-57
2022/02/18 09:19:18;;;;;;;5.20;1.75;;;16.00;99.90;;;;;;5112852;28;20231;-56
2022/02/18 09:21:45;;;;;;;7.20;1.70;;;15.90;99.90;;;;;;5112661;28;20209;-58
2022/02/18 09:24:14;;;;;;;5.70;1.60;;;15.80;99.90;;;;;;5112499;28;20204;-57
2022/02/18 09:26:40;;;;;;;15.87;3.20;;;15.80;99.90;;;;;;5112270;28;20622;-56
2022/02/18 09:29:07;;;;;;;11.43;2.70;;;15.90;99.90;;;;;;5112473;28;20215;-58
2022/02/18 09:31:35;;;;;;;19.07;3.43;;;15.90;99.90;;;;;;5112306;28;20199;-57
2022/02/18 09:34:03;;;;;;;17.70;2.53;;;16.00;99.90;;;;;;5112585;28;20306;-57
2022/02/18 09:36:31;;;;;;;12.83;2.40;;;15.90;99.90;;;;;;5112389;28;20203;-57
2022/02/18 09:38:57;;;;;;;5.40;1.50;;;15.80;99.90;;;;;;5111262;28;20238;-57
2022/02/18 09:41:24;;;;;;;6.10;1.43;;;16.00;99.90;;;;;;5112109;28;20256;-57
2022/02/18 09:43:53;;;;;;;10.30;2.07;;;16.20;99.90;;;;;;5112675;28;20256;-57
2022/02/18 09:46:21;;;;;;;4.70;1.65;;;16.30;99.90;;;;;;5112155;28;20211;-57
2022/02/18 09:48:48;;;;;;;7.27;1.50;;;16.60;99.90;;;;;;5112562;28;20572;-57
2022/02/18 09:51:19;;;;;;;4.50;1.42;;;16.70;99.90;;;;;;5112264;28;20208;-57
2022/02/18 09:53:45;;;;;;;3.88;1.55;;;17.00;99.90;;;;;;5112323;28;20218;-57
2022/02/18 09:56:14;;;;;;;3.92;1.40;;;17.20;99.90;;;;;;5111950;28;20204;-58
2022/02/18 09:58:41;;;;;;;4.20;2.03;;;17.30;99.90;;;;;;5111967;28;20235;-57
2022/02/18 10:01:08;;;;;;;5.32;1.33;;;17.50;99.90;;;;;;5111791;28;20683;-56
2022/02/18 10:03:36;;;;;;;2.60;1.05;;;17.50;99.90;;;;;;5112585;28;20207;-59
2022/02/18 10:06:03;;;;;;;3.25;1.20;;;17.50;99.90;;;;;;5112153;28;20290;-59
2022/02/18 10:08:31;;;;;;;3.92;1.15;;;17.50;99.90;;;;;;5111869;28;20227;-58
2022/02/18 10:11:01;;;;;;;2.45;1.05;;;17.40;99.90;;;;;;5112027;28;20214;-58
2022/02/18 10:13:31;;;;;;;3.53;1.02;;;17.40;99.90;;;;;;5112028;28;20290;-58
2022/02/18 10:15:58;;;;;;;5.72;1.83;;;17.40;99.90;;;;;;5112062;28;20664;-58
2022/02/18 10:18:26;;;;;;;2.90;1.13;;;17.40;99.90;;;;;;5111780;28;20251;-59
2022/02/18 10:20:53;;;;;;;3.30;0.90;;;17.50;99.90;;;;;;5111768;28;20231;-59
2022/02/18 10:23:21;;;;;;;2.90;1.00;;;17.60;99.90;;;;;;5111887;28;20549;-61
2022/02/18 10:25:52;;;;;;;3.97;1.15;;;17.80;99.90;;;;;;5096787;28;20556;-61
2022/02/18 10:28:21;;;;;;;3.42;1.00;;;18.00;99.90;;;;;;5091362;28;20224;-63
2022/02/18 10:31:00;;;;;;;3.88;0.95;;;18.10;99.90;;;;;;5091387;28;20243;-59
2022/02/18 10:33:26;;;;;;;2.33;0.70;;;18.30;99.90;;;;;;5091561;28;20204;-58
2022/02/18 10:35:59;;;;;;;4.30;0.80;;;18.30;99.90;;;;;;5091007;28;20598;-58
2022/02/18 10:38:31;;;;;;;3.35;1.25;;;18.40;99.90;;;;;;5091302;28;20228;-58
2022/02/18 10:41:00;;;;;;;2.70;0.88;;;18.50;99.90;;;;;;5091298;28;20208;-58
2022/02/18 10:43:28;;;;;;;4.43;1.00;;;18.60;99.90;;;;;;5091344;28;20719;-58
2022/02/18 10:45:59;;;;;;;6.35;1.42;;;18.90;99.90;;;;;;5091103;28;20273;-60
2022/02/18 10:48:26;;;;;;;3.63;1.00;;;19.20;99.90;;;;;;5090987;28;20277;-59
2022/02/18 10:51:07;;;;;;;4.07;1.83;;;19.40;99.90;;;;;;5094384;28;20281;-60
2022/02/18 10:53:39;;;;;;;5.60;2.75;;;19.70;99.90;;;;;;5095268;28;20212;-60
2022/02/18 10:56:09;;;;;;;9.35;4.70;;;19.90;99.90;;;;;;5094348;28;20561;-60
2022/02/18 10:58:38;;;;;;;5.90;1.92;;;20.00;99.90;;;;;;5094407;28;20692;-60
2022/02/18 11:01:08;;;;;;;4.78;1.88;;;20.10;99.90;;;;;;5094674;28;20257;-60
2022/02/18 11:03:36;;;;;;;3.38;1.40;;;20.10;99.90;;;;;;5094858;28;20201;-60
2022/02/18 11:06:14;;;;;;;2.80;1.17;;;20.00;99.90;;;;;;5094639;28;20209;-60
2022/02/18 11:08:51;;;;;;;5.82;1.33;;;20.20;99.90;;;;;;5094280;28;20263;-61
2022/02/18 11:11:19;;;;;;;3.47;1.30;;;20.40;99.90;;;;;;5094144;28;20215;-61
2022/02/18 11:13:46;;;;;;;2.53;1.23;;;20.60;99.90;;;;;;5094707;28;20273;-60
2022/02/18 11:16:16;;;;;;;6.40;1.10;;;20.80;99.60;;;;;;5094295;28;20253;-61
2022/02/18 11:18:43;;;;;;;4.93;1.20;;;21.00;99.20;;;;;;5094222;28;20228;-60
2022/02/18 11:21:12;;;;;;;3.20;1.30;;;21.20;99.10;;;;;;5094115;28;20208;-62
2022/02/18 11:23:42;;;;;;;4.55;1.45;;;21.30;99.00;;;;;;5093824;28;20215;-62
2022/02/18 11:26:10;;;;;;;7.32;2.08;;;21.50;98.70;;;;;;5094160;28;20266;-60
2022/02/18 11:28:38;;;;;;;3.97;1.20;;;21.60;98.20;;;;;;5105683;28;20223;-60
2022/02/18 11:31:10;;;;;;;3.78;1.30;;;21.60;98.20;;;;;;5114406;28;20203;-62
2022/02/18 11:33:52;;;;;;;7.05;1.38;;;21.70;98.10;;;;;;5114715;28;20204;-62
2022/02/18 11:36:38;;;;;;;6.85;1.58;;;21.70;98.10;;;;;;5114110;28;20556;-61
2022/02/18 11:39:31;;;;;;;3.72;1.08;;;21.60;97.70;;;;;;5114555;28;20228;-60
2022/02/18 11:42:08;;;;;;;3.65;1.33;;;21.50;97.70;;;;;;5114167;28;20219;-61
2022/02/18 11:44:37;;;;;;;3.95;1.13;;;21.10;97.50;;;;;;5114114;28;20230;-62
2022/02/18 11:47:15;;;;;;;2.95;1.30;;;20.80;97.50;;;;;;5114619;28;20233;-62
2022/02/18 11:49:43;;;;;;;5.38;1.25;;;20.40;97.70;;;;;;5114111;28;20231;-63
2022/02/18 11:52:11;;;;;;;3.38;1.25;;;20.20;98.10;;;;;;5114074;28;20207;-62
2022/02/18 11:54:38;;;;;;;7.15;0.88;;;20.10;98.30;;;;;;5114316;28;20253;-62
2022/02/18 11:57:07;;;;;;;5.80;1.10;;;20.00;98.30;;;;;;5113897;28;20207;-61
2022/02/18 11:59:57;;;;;;;3.85;1.30;;;20.00;98.30;;;;;;5113988;28;20238;-64
2022/02/18 12:02:38;;;;;;;2.00;0.85;;;19.90;98.30;;;;;;5112862;28;20252;-62
2022/02/18 12:05:08;;;;;;;7.15;1.45;;;19.80;98.30;;;;;;5114054;28;20199;-59
2022/02/18 12:07:37;;;;;;;3.17;1.00;;;19.80;98.20;;;;;;5113589;28;20330;-58
2022/02/18 12:10:25;;;;;;;4.13;0.88;;;19.70;97.90;;;;;;5113450;28;20722;-57
2022/02/18 12:13:00;;;;;;;6.57;1.33;;;19.70;97.90;;;;;;5113381;28;20671;-63
2022/02/18 12:15:30;;;;;;;5.40;1.15;;;19.70;97.90;;;;;;5113744;28;20203;-58
2022/02/18 12:18:03;;;;;;;2.50;0.90;;;19.90;98.00;;;;;;5113124;27;20211;-58
2022/02/18 12:20:32;;;;;;;4.63;2.47;;;19.90;97.70;;;;;;5113360;28;20239;-59
2022/02/18 12:23:19;;;;;;;3.50;1.00;;;20.00;97.50;;;;;;5113492;28;20206;-58
2022/02/18 12:25:46;;;;;;;3.88;1.38;;;20.00;97.60;;;;;;5113460;28;20203;-60
2022/02/18 12:28:22;;;;;;;6.25;2.17;;;19.90;97.70;;;;;;5113064;28;20227;-63
2022/02/18 12:30:58;;;;;;;8.82;2.25;;;19.90;97.30;;;;;;5113241;28;20203;-62
2022/02/18 12:33:25;;;;;;;7.53;2.22;;;20.00;97.00;;;;;;5113145;28;20579;-62
2022/02/18 12:35:52;;;;;;;8.15;1.70;;;20.00;96.80;;;;;;5113085;28;20579;-63
2022/02/18 12:38:19;;;;;;;4.90;2.80;;;19.90;96.80;;;;;;5112684;28;20223;-61
2022/02/18 12:40:47;;;;;;;6.07;1.60;;;19.80;96.90;;;;;;5105449;28;20200;-59
2022/02/18 12:43:18;;;;;;;4.22;1.10;;;19.70;97.00;;;;;;5106351;28;20207;-59
2022/02/18 12:45:51;;;;;;;5.63;1.95;;;19.70;96.90;;;;;;5112548;28;20203;-58
2022/02/18 12:48:33;;;;;;;4.82;1.83;;;19.60;97.10;;;;;;5100751;28;20306;-59